Time;durP1;ratioP1;P1;durP2;ratioP2;P2;SDS_P1;SDS_P2;PMS_P1;PMS_P2;Temp;Humidity;BMP_temperature;BMP_pressure;BME280_temperature;BME280_humidity;BME280_pressure;Samples;Min_cycle;Max_cycle;Signal;HPM_P1;HPM_P2
2023/06/07 00:00:13;;;;;;;16.80;11.80;;;;;;;16.50;100.00;100334.08;89766;1265;1041236;-56
2023/06/07 00:04:39;;;;;;;16.20;10.50;;;;;;;16.44;100.00;100332.76;89703;1265;1041437;-56
2023/06/07 00:08:45;;;;;;;;;;;;;;;16.50;100.00;100331.27;89713;1264;1041540;-56
2023/06/07 00:12:49;;;;;;;18.10;10.60;;;;;;;16.60;100.00;100331.25;89766;1265;1041100;-56
2023/06/07 00:17:24;;;;;;;15.20;10.50;;;;;;;16.58;100.00;100329.64;89783;1264;1041482;-56
2023/06/07 00:21:28;;;;;;;17.20;10.80;;;;;;;16.65;100.00;100329.70;89730;1264;1041414;-56
2023/06/07 00:25:33;;;;;;;20.40;10.30;;;;;;;16.73;100.00;100326.32;89769;1265;1041234;-56
2023/06/07 00:29:36;;;;;;;19.90;10.30;;;;;;;16.70;100.00;100326.79;89766;1264;1043625;-56
2023/06/07 00:33:39;;;;;;;15.70;10.30;;;;;;;16.72;100.00;100332.52;89736;1265;1041362;-56
2023/06/07 00:37:42;;;;;;;23.70;10.80;;;;;;;16.76;100.00;100327.23;89717;1265;1041420;-56
2023/06/07 00:41:45;;;;;;;24.50;12.70;;;;;;;16.56;100.00;100325.44;89727;1265;1041591;-56
2023/06/07 00:45:48;;;;;;;17.90;10.80;;;;;;;16.50;100.00;100326.57;89750;1264;1040875;-56
2023/06/07 00:50:21;;;;;;;14.90;11.00;;;;;;;16.50;100.00;100327.88;89715;1264;1040961;-57
2023/06/07 00:54:24;;;;;;;22.10;12.10;;;;;;;16.51;100.00;100328.45;89735;1265;1040861;-56
2023/06/07 00:58:30;;;;;;;20.70;16.10;;;;;;;16.49;100.00;100323.95;89748;1264;1041614;-56
2023/06/07 01:02:34;;;;;;;26.80;12.90;;;;;;;16.61;100.00;100324.38;89763;1265;1041573;-56
2023/06/07 01:06:38;;;;;;;26.10;13.50;;;;;;;16.67;100.00;100323.34;89789;1265;1041307;-56
2023/06/07 01:10:42;;;;;;;21.50;12.50;;;;;;;16.81;100.00;100326.12;89784;1264;1040996;-56
2023/06/07 01:15:12;;;;;;;18.30;11.30;;;;;;;16.92;100.00;100325.37;89736;1264;1041351;-56
2023/06/07 01:19:23;;;;;;;16.00;11.00;;;;;;;17.02;100.00;100319.29;89693;1265;1041420;-56
2023/06/07 01:23:31;;;;;;;19.00;12.40;;;;;;;17.12;100.00;100314.02;89754;1264;1041007;-56
2023/06/07 01:27:40;;;;;;;19.40;12.90;;;;;;;17.16;100.00;100312.58;89733;1265;1041337;-56
2023/06/07 01:37:03;;;;;;;22.60;13.00;;;;;;;17.41;100.00;100308.95;89793;1265;1040604;-56
2023/06/07 01:41:17;;;;;;;19.40;13.00;;;;;;;17.43;100.00;100306.36;89776;1264;1040675;-57
2023/06/07 01:45:20;;;;;;;16.90;12.20;;;;;;;17.42;100.00;100304.86;89701;1264;1040752;-56
2023/06/07 01:49:25;;;;;;;20.90;13.10;;;;;;;17.50;100.00;100307.44;89679;1265;1041127;-56
2023/06/07 01:53:30;;;;;;;18.40;12.00;;;;;;;17.57;100.00;100310.77;89721;1265;1041388;-56
2023/06/07 01:57:51;;;;;;;20.00;13.10;;;;;;;17.45;100.00;100312.68;89691;1265;1041068;-57
2023/06/07 02:02:14;;;;;;;24.50;13.80;;;;;;;16.97;100.00;100315.84;89823;1264;1040742;-55
2023/06/07 02:06:20;;;;;;;17.70;14.20;;;;;;;16.66;100.00;100307.66;89724;1264;1041340;-56
2023/06/07 02:10:29;;;;;;;17.50;12.60;;;;;;;16.52;100.00;100314.56;89783;1265;1040843;-56
2023/06/07 02:14:32;;;;;;;16.30;12.70;;;;;;;16.48;100.00;100311.90;89672;1264;1041622;-56
2023/06/07 02:18:44;;;;;;;18.50;12.30;;;;;;;16.43;100.00;100312.95;89730;1265;1040135;-56
2023/06/07 02:22:47;;;;;;;27.40;13.30;;;;;;;16.35;100.00;100313.11;89678;1265;1041161;-56
2023/06/07 02:26:54;;;;;;;18.60;13.20;;;;;;;16.25;100.00;100310.79;89701;1264;1041177;-56
2023/06/07 02:30:57;;;;;;;27.40;14.30;;;;;;;16.21;100.00;100311.74;89726;1264;1040916;-56
2023/06/07 02:35:01;;;;;;;19.00;11.50;;;;;;;16.20;100.00;100316.16;89780;1265;1041443;-56
2023/06/07 02:39:04;;;;;;;18.50;14.10;;;;;;;16.34;100.00;100321.25;89737;1265;1041570;-56
2023/06/07 02:43:07;;;;;;;25.80;13.50;;;;;;;16.59;100.00;100327.52;89705;1265;1041413;-56
2023/06/07 02:47:10;;;;;;;21.80;14.70;;;;;;;16.90;100.00;100327.71;89767;1265;1040752;-56
2023/06/07 02:52:05;;;;;;;15.50;12.50;;;;;;;17.14;100.00;100335.19;89799;1265;1040889;-55
2023/06/07 02:56:09;;;;;;;13.50;11.80;;;;;;;17.07;100.00;100344.92;89803;1265;1041121;-56
2023/06/07 03:00:16;;;;;;;15.40;12.10;;;;;;;16.91;100.00;100345.18;89797;1265;1041367;-56
2023/06/07 03:04:22;;;;;;;22.50;14.30;;;;;;;16.96;100.00;100342.29;89687;1264;1040653;-55
2023/06/07 03:08:26;;;;;;;19.90;13.50;;;;;;;17.11;100.00;100337.53;89698;1265;1041123;-56
2023/06/07 03:12:28;;;;;;;16.10;10.70;;;;;;;17.29;100.00;100343.91;89686;1265;1040686;-55
2023/06/07 03:16:56;;;;;;;17.80;13.20;;;;;;;17.46;100.00;100346.80;89774;1264;1040818;-57
2023/06/07 03:21:01;;;;;;;16.30;11.70;;;;;;;17.66;100.00;100347.81;89835;1265;1040841;-56
2023/06/07 03:25:06;;;;;;;22.20;12.90;;;;;;;17.76;100.00;100346.88;89739;1265;1041090;-56
2023/06/07 03:29:10;;;;;;;22.00;11.90;;;;;;;17.86;100.00;100347.73;89754;1265;1040485;-55
2023/06/07 03:38:49;;;;;;;27.80;13.40;;;;;;;17.94;100.00;100357.09;89744;1265;1041261;-55
2023/06/07 03:42:52;;;;;;;21.90;12.20;;;;;;;17.97;100.00;100354.10;89697;1264;1040928;-55
2023/06/07 03:46:56;;;;;;;19.00;11.60;;;;;;;17.80;100.00;100360.79;89776;1265;1041157;-55
2023/06/07 03:51:00;;;;;;;22.60;13.50;;;;;;;17.65;100.00;100360.34;89728;1265;1041066;-55
2023/06/07 03:55:05;;;;;;;19.00;11.30;;;;;;;17.55;100.00;100353.38;89772;1265;1041571;-55
2023/06/07 03:59:08;;;;;;;18.00;11.10;;;;;;;17.37;100.00;100354.44;89691;1268;1041347;-55
2023/06/07 04:03:13;;;;;;;17.10;12.70;;;;;;;17.29;100.00;100355.05;89805;1265;1041138;-55
2023/06/07 04:07:25;;;;;;;;;;;;;;;17.31;100.00;100354.20;89809;1265;1040611;-55
2023/06/07 04:11:29;;;;;;;17.30;13.90;;;;;;;17.29;100.00;100351.89;89735;1265;1039350;-55
2023/06/07 04:15:32;;;;;;;16.70;12.80;;;;;;;17.36;100.00;100354.34;89682;1268;1040070;-55
2023/06/07 04:19:42;;;;;;;20.00;12.20;;;;;;;17.58;100.00;100357.10;89702;1265;1041134;-55
2023/06/07 04:23:53;;;;;;;17.60;13.00;;;;;;;17.79;100.00;100365.54;89830;1268;1040666;-55
2023/06/07 04:28:01;;;;;;;54.10;18.40;;;;;;;17.91;100.00;100358.40;89662;1265;1044176;-55
2023/06/07 04:32:06;;;;;;;29.10;13.00;;;;;;;17.94;100.00;100358.91;89619;1265;1041978;-55
2023/06/07 04:36:14;;;;;;;20.40;12.50;;;;;;;17.91;100.00;100361.18;89597;1265;1041389;-54
2023/06/07 04:40:18;;;;;;;19.80;12.40;;;;;;;18.01;100.00;100361.89;89773;1265;1040855;-54
2023/06/07 04:44:28;;;;;;;14.10;11.80;;;;;;;18.23;100.00;100363.09;89780;1265;1040969;-56
2023/06/07 04:48:58;;;;;;;47.00;17.00;;;;;;;18.35;100.00;100362.63;89707;1265;1041681;-55
2023/06/07 04:53:03;;;;;;;16.10;11.90;;;;;;;18.36;100.00;100364.95;89718;1265;1041553;-55
2023/06/07 04:57:11;;;;;;;16.40;10.90;;;;;;;18.33;100.00;100364.09;89644;1264;1041494;-55
2023/06/07 05:01:15;;;;;;;13.50;11.20;;;;;;;18.25;100.00;100362.80;89754;1265;1040573;-56
2023/06/07 05:40:18;;;;;;;17.30;13.00;;;;;;;19.45;99.63;100370.12;89789;1264;1041245;-58
2023/06/07 05:44:27;;;;;;;17.40;13.60;;;;;;;19.42;100.00;100368.79;89909;1265;1041128;-57
2023/06/07 05:48:31;;;;;;;24.80;14.80;;;;;;;19.50;100.00;100369.00;89825;1265;1042799;-58
2023/06/07 05:52:37;;;;;;;16.90;14.00;;;;;;;19.59;100.00;100373.70;89789;1265;1041216;-57
2023/06/07 05:56:40;;;;;;;17.20;12.20;;;;;;;19.69;98.87;100373.20;89770;1265;1041115;-57
2023/06/07 06:00:49;;;;;;;21.60;13.10;;;;;;;19.84;98.84;100374.28;89697;1264;1041430;-57
2023/06/07 06:04:53;;;;;;;21.50;12.40;;;;;;;20.04;98.23;100373.55;89830;1264;1041077;-58
2023/06/07 06:09:11;;;;;;;19.70;13.40;;;;;;;20.05;95.86;100374.17;89835;1261;1041406;-90
2023/06/07 06:13:22;;;;;;;24.30;12.80;;;;;;;20.02;96.66;100371.81;89439;1267;1042283;-90
2023/06/07 06:17:30;;;;;;;19.80;14.00;;;;;;;20.12;98.10;100372.47;89418;1267;1041494;-89
2023/06/07 06:21:51;;;;;;;20.50;13.30;;;;;;;20.29;96.74;100375.27;89329;1269;1041071;-90
2023/06/07 06:26:00;;;;;;;18.70;14.80;;;;;;;20.39;94.59;100376.33;89367;1268;1044405;-90
2023/06/07 06:30:26;;;;;;;20.80;15.40;;;;;;;20.56;95.35;100375.95;85339;1267;1040754;-90
2023/06/07 06:34:39;;;;;;;18.80;13.50;;;;;;;20.72;94.53;100379.45;89197;1268;1041679;-90
2023/06/07 06:39:04;;;;;;;15.90;12.10;;;;;;;21.03;94.46;100382.98;89246;1268;1041664;-90
2023/06/07 06:43:24;;;;;;;21.60;12.80;;;;;;;21.17;90.72;100382.91;89340;1266;1043525;-90
2023/06/07 06:47:50;;;;;;;17.40;12.20;;;;;;;21.25;92.12;100385.03;89335;1270;1040949;-90
2023/06/07 06:52:15;;;;;;;21.60;12.70;;;;;;;21.35;90.21;100385.82;89328;1270;1041335;-90
2023/06/07 06:56:40;;;;;;;;;;;;;;;21.62;90.84;100395.97;89398;1267;1044039;-91
2023/06/07 07:01:22;;;;;;;14.60;13.00;;;;;;;22.12;89.09;100398.15;89842;1264;1041149;-90
2023/06/07 07:05:43;;;;;;;21.50;12.90;;;;;;;22.28;86.22;100401.56;87075;1265;6173402;-91
2023/06/07 07:10:23;;;;;;;24.00;13.00;;;;;;;22.42;86.53;100406.31;89482;1265;1036251;-91
2023/06/07 07:14:33;;;;;;;25.10;13.70;;;;;;;22.51;85.31;100407.52;89857;1258;1036560;-58
2023/06/07 07:18:36;;;;;;;17.00;12.20;;;;;;;22.37;84.78;100410.33;89865;1269;1036000;-58
2023/06/07 07:22:47;;;;;;;15.00;10.80;;;;;;;22.15;84.92;100408.79;89778;1264;1036520;-58
2023/06/07 07:26:52;;;;;;;13.70;10.60;;;;;;;22.18;84.31;100410.80;89850;1267;1036603;-58
2023/06/07 07:31:04;;;;;;;11.40;10.20;;;;;;;22.25;82.21;100414.01;89920;1265;1036012;-59
2023/06/07 07:35:15;;;;;;;14.80;10.40;;;;;;;22.24;82.13;100414.81;89840;1267;1036081;-58
2023/06/07 07:39:21;;;;;;;12.90;11.50;;;;;;;22.15;83.22;100412.34;89840;1265;1036507;-58
2023/06/07 07:43:27;;;;;;;16.20;11.60;;;;;;;22.31;85.36;100411.01;89833;1266;1035893;-58
2023/06/07 07:47:38;;;;;;;14.00;11.10;;;;;;;22.53;84.81;100408.00;89837;1265;1036807;-58
2023/06/07 07:51:41;;;;;;;13.80;11.80;;;;;;;22.69;83.46;100407.77;89776;1264;1036306;-58
2023/06/07 07:55:45;;;;;;;13.70;12.10;;;;;;;22.59;83.22;100407.40;89686;1267;1035878;-59
2023/06/07 07:59:51;;;;;;;12.70;11.40;;;;;;;22.64;83.22;100406.80;89815;1265;1036536;-58
2023/06/07 08:03:55;;;;;;;14.90;11.90;;;;;;;22.86;82.66;100411.00;89761;1266;1035901;-58
2023/06/07 08:08:04;;;;;;;16.20;11.90;;;;;;;23.15;84.76;100414.36;89877;1265;1035947;-59
2023/06/07 08:12:09;;;;;;;14.50;12.20;;;;;;;23.27;80.69;100413.31;89729;1267;1036743;-58
2023/06/07 08:16:12;;;;;;;14.80;11.60;;;;;;;23.21;82.01;100410.84;89722;1265;1036401;-58
2023/06/07 08:45:32;;;;;;;14.10;9.30;;;;;;;24.78;72.19;100405.25;89748;1265;1038440;-56
2023/06/07 08:49:40;;;;;;;11.50;8.70;;;;;;;24.92;72.16;100407.27;89531;1267;1036211;-57
2023/06/07 08:53:56;;;;;;;10.80;7.60;;;;;;;25.31;71.70;100404.06;89722;1266;1036324;-57
2023/06/07 08:58:00;;;;;;;10.00;8.00;;;;;;;25.39;67.71;100405.33;89781;1267;1035968;-57
2023/06/07 09:02:06;;;;;;;9.30;7.60;;;;;;;25.67;67.36;100409.94;89773;1265;1036497;-57
2023/06/07 09:06:24;;;;;;;9.30;8.30;;;;;;;25.92;67.07;100407.95;89739;1266;1036627;-57
2023/06/07 09:10:30;;;;;;;9.60;8.60;;;;;;;26.00;69.09;100406.44;89728;1267;1036628;-57
2023/06/07 09:14:34;;;;;;;9.30;8.20;;;;;;;25.76;68.29;100408.44;89615;1267;1036575;-57
2023/06/07 09:18:53;;;;;;;8.40;7.60;;;;;;;25.98;67.54;100408.84;89753;1265;1036390;-57
2023/06/07 09:37:59;;;;;;;12.30;7.70;;;;;;;26.50;67.65;100405.24;89760;1265;1034101;-58
2023/06/07 09:42:34;;;;;;;24.70;7.90;;;;;;;26.65;66.70;100404.62;90109;1263;1038909;-91
2023/06/07 09:51:41;;;;;;;10.20;7.60;;;;;;;26.51;66.83;100401.41;90129;1263;1036230;-57
2023/06/07 09:55:46;;;;;;;8.50;6.20;;;;;;;26.47;68.46;100397.91;89862;1265;1036106;-58
2023/06/07 10:00:16;;;;;;;6.50;5.80;;;;;;;26.46;63.74;100396.00;89763;1265;1036805;-59
2023/06/07 10:04:24;;;;;;;7.30;6.60;;;;;;;26.47;65.23;100393.94;89839;1265;1036516;-58
2023/06/07 10:08:31;;;;;;;10.30;7.10;;;;;;;26.58;67.01;100398.05;89781;1265;1036417;-59
2023/06/07 10:13:05;;;;;;;7.50;6.60;;;;;;;26.53;64.57;100397.21;89755;1265;1036184;-58
2023/06/07 10:17:13;;;;;;;7.20;6.50;;;;;;;26.42;64.43;100397.77;89683;1265;1036408;-57
2023/06/07 10:21:22;;;;;;;23.90;8.60;;;;;;;26.62;64.78;100395.19;89859;1265;1035764;-58
2023/06/07 10:30:32;;;;;;;8.50;6.20;;;;;;;26.83;67.09;100390.28;89773;1266;1036548;-90
2023/06/07 10:34:37;;;;;;;7.30;6.20;;;;;;;27.12;65.95;100382.27;89772;1268;1036628;-90
2023/06/07 10:38:41;;;;;;;5.50;4.50;;;;;;;26.91;63.68;100382.80;89748;1268;1035888;-92
2023/06/07 10:42:48;;;;;;;6.40;5.40;;;;;;;27.01;67.14;100379.85;89742;1267;1036914;-89
2023/06/07 10:47:21;;;;;;;6.50;5.40;;;;;;;27.23;65.09;100370.25;89947;1263;1034366;-58
2023/06/07 10:51:51;;;;;;;9.70;6.50;;;;;;;27.05;64.23;100368.66;89852;1264;1036688;-90
2023/06/07 10:56:27;;;;;;;11.30;6.40;;;;;;;26.99;65.94;100363.70;89798;1269;1036619;-90
2023/06/07 11:00:40;;;;;;;39.40;11.20;;;;;;;27.04;68.45;100352.75;89911;1269;1036519;-90
2023/06/07 11:05:14;;;;;;;7.10;6.40;;;;;;;27.21;65.86;100348.04;89669;1264;1036072;-92
2023/06/07 11:13:39;;;;;;;8.80;5.50;;;;;;;27.52;67.33;100339.29;87153;1265;1034358;-58
2023/06/07 11:18:03;;;;;;;6.80;6.10;;;;;;;27.58;64.47;100338.95;89632;1264;1036194;-59
2023/06/07 11:22:31;;;;;;;9.20;5.10;;;;;;;27.67;65.32;100333.18;89628;1265;1036737;-59
2023/06/07 11:26:35;;;;;;;6.90;5.50;;;;;;;27.64;66.63;100332.62;89519;1265;1036613;-58
2023/06/07 11:30:45;;;;;;;8.40;6.00;;;;;;;27.69;67.15;100327.81;89528;1265;1036082;-58
2023/06/07 11:34:56;;;;;;;7.30;5.90;;;;;;;27.81;66.38;100319.98;89559;1267;1036653;-58
2023/06/07 11:39:05;;;;;;;5.40;4.90;;;;;;;27.96;68.18;100316.86;89608;1267;1036839;-57
2023/06/07 11:43:12;;;;;;;10.00;5.30;;;;;;;28.12;68.50;100317.20;89601;1265;1036104;-58
2023/06/07 11:47:15;;;;;;;9.80;6.60;;;;;;;28.24;67.60;100309.96;89664;1265;1036119;-59
2023/06/07 11:51:50;;;;;;;11.80;6.20;;;;;;;28.45;66.89;100304.61;89697;1264;1037391;-59
2023/06/07 11:55:56;;;;;;;6.60;5.30;;;;;;;28.64;66.82;100299.91;89699;1265;1036366;-59
2023/06/07 11:59:59;;;;;;;5.10;4.70;;;;;;;28.66;62.67;100289.30;89684;1265;1036448;-58
2023/06/07 12:04:03;;;;;;;6.00;5.40;;;;;;;28.72;64.92;100282.34;89733;1265;1036505;-59
2023/06/07 12:08:16;;;;;;;6.20;5.60;;;;;;;28.87;66.35;100275.88;89749;1265;1036028;-60
2023/06/07 12:12:21;;;;;;;5.90;5.00;;;;;;;29.03;66.64;100268.69;89744;1265;1036467;-58
2023/06/07 12:16:26;;;;;;;8.00;5.90;;;;;;;29.12;65.11;100266.91;89664;1269;1036134;-58
2023/06/07 12:20:30;;;;;;;8.30;5.80;;;;;;;29.08;63.75;100271.67;89659;1264;1036562;-58
2023/06/07 12:24:38;;;;;;;5.80;5.20;;;;;;;28.92;62.80;100271.54;89662;1265;1036406;-59
2023/06/07 12:28:43;;;;;;;6.30;5.70;;;;;;;28.90;63.13;100265.21;89767;1265;1034988;-59
2023/06/07 12:32:47;;;;;;;9.20;5.80;;;;;;;28.94;63.58;100262.42;89909;1265;1038353;-59
2023/06/07 12:36:54;;;;;;;8.10;6.00;;;;;;;28.98;64.32;100255.68;89878;1264;1036786;-58
2023/06/07 12:40:58;;;;;;;7.80;6.00;;;;;;;29.03;65.38;100248.92;89722;1264;1036831;-59
2023/06/07 12:45:04;;;;;;;5.70;4.90;;;;;;;29.17;64.11;100240.69;89794;1265;1037976;-59
2023/06/07 12:49:09;;;;;;;14.40;7.10;;;;;;;29.07;61.85;100236.77;89769;1265;1036740;-58
2023/06/07 12:53:12;;;;;;;5.70;5.00;;;;;;;29.08;64.81;100235.08;89781;1265;1036347;-58
2023/06/07 12:57:17;;;;;;;55.50;13.10;;;;;;;29.08;64.55;100238.31;89657;1265;1036596;-58
2023/06/07 13:01:23;;;;;;;7.70;5.10;;;;;;;29.11;65.87;100238.84;89607;1264;1036597;-58
2023/06/07 13:05:28;;;;;;;25.70;8.50;;;;;;;29.05;65.35;100243.08;89620;1265;1036253;-58
2023/06/07 13:09:33;;;;;;;8.10;5.50;;;;;;;28.96;66.92;100242.90;89625;1265;1036795;-59
2023/06/07 13:13:40;;;;;;;11.90;5.80;;;;;;;28.92;68.42;100233.81;89662;1269;1036207;-59
2023/06/07 13:17:44;;;;;;;21.20;8.40;;;;;;;28.97;68.23;100231.63;89664;1265;1036744;-59
2023/06/07 13:21:48;;;;;;;9.40;7.10;;;;;;;28.90;67.78;100226.65;89728;1267;1035284;-58
2023/06/07 13:25:51;;;;;;;5.70;5.20;;;;;;;28.80;68.60;100227.02;89764;1266;1036161;-58
2023/06/07 13:29:55;;;;;;;8.80;5.60;;;;;;;28.74;69.25;100223.31;89702;1265;1036315;-57
2023/06/07 13:34:01;;;;;;;9.00;6.10;;;;;;;28.71;67.70;100220.69;89708;1269;1036724;-57
2023/06/07 13:38:05;;;;;;;;;;;;;;;28.69;67.38;100221.03;89760;1264;1036100;-58
2023/06/07 13:42:08;;;;;;;5.70;4.00;;;;;;;28.45;64.73;100227.25;89714;1265;1036831;-58
2023/06/07 13:46:20;;;;;;;5.00;4.50;;;;;;;28.16;59.41;100232.96;89635;1261;1036550;-90
2023/06/07 13:54:44;;;;;;;4.10;3.40;;;;;;;27.63;64.03;100244.37;89495;1267;1036610;-91
2023/06/07 13:58:53;;;;;;;9.80;3.70;;;;;;;27.77;64.30;100244.77;89631;1267;1037088;-90
2023/06/07 14:02:57;;;;;;;4.70;4.20;;;;;;;27.75;61.60;100240.23;89262;1267;1036654;-90
2023/06/07 14:07:03;;;;;;;5.70;4.20;;;;;;;27.53;60.12;100231.30;89837;1264;1036554;-91
2023/06/07 14:21:25;;;;;;;3.60;2.80;;;;;;;27.24;60.47;100259.27;89893;1264;1036828;-56
2023/06/07 14:25:28;;;;;;;4.50;3.40;;;;;;;27.02;59.28;100289.34;89891;1265;1036220;-57
2023/06/07 14:29:41;;;;;;;24.80;7.50;;;;;;;26.89;67.56;100322.71;89939;1263;1034747;-54
2023/06/07 14:33:44;;;;;;;8.20;5.80;;;;;;;25.91;75.16;100331.40;88844;1266;1036915;-89
2023/06/07 14:37:50;;;;;;;6.60;4.30;;;;;;;25.17;82.61;100305.63;88781;1269;1036479;-91
2023/06/07 14:46:37;;;;;;;4.20;3.80;;;;;;;24.17;90.04;100285.12;89296;1265;1036577;-91
2023/06/07 14:50:41;;;;;;;4.50;3.60;;;;;;;23.74;92.86;100277.30;89499;1267;1037846;-91
2023/06/07 14:54:49;;;;;;;6.50;4.90;;;;;;;23.37;96.01;100274.42;89431;1268;1036198;-90
2023/06/07 14:58:54;;;;;;;7.10;5.30;;;;;;;23.10;98.70;100266.91;88840;1268;1036445;-91
2023/06/07 15:02:58;;;;;;;6.60;4.50;;;;;;;22.67;100.00;100259.02;88557;1268;1036072;-89
2023/06/07 15:07:03;;;;;;;8.30;4.90;;;;;;;21.99;100.00;100259.33;88694;1267;1036240;-91
2023/06/07 15:11:07;;;;;;;4.90;4.40;;;;;;;21.59;100.00;100257.66;88670;1269;1039808;-90
2023/06/07 15:15:11;;;;;;;6.10;4.30;;;;;;;21.43;100.00;100251.70;88643;1268;1036592;-91
2023/06/07 15:19:15;;;;;;;7.40;5.70;;;;;;;21.38;100.00;100250.19;88393;1267;1037089;-90
2023/06/07 15:23:18;;;;;;;8.50;5.80;;;;;;;21.37;100.00;100244.44;89116;1267;1037054;-89
2023/06/07 15:27:54;;;;;;;7.20;5.50;;;;;;;21.39;100.00;100244.46;89584;1269;1036304;-91
2023/06/07 15:36:34;;;;;;;6.90;5.30;;;;;;;21.48;98.79;100244.52;89528;1265;1034556;-91
2023/06/07 15:55:40;;;;;;;5.70;5.00;;;;;;;21.46;100.00;100245.34;89610;1265;1041129;-56
2023/06/07 15:59:44;;;;;;;14.10;4.30;;;;;;;21.36;100.00;100246.14;89710;1265;1036721;-56
2023/06/07 16:03:51;;;;;;;;;;;;;;;21.30;100.00;100240.98;89638;1265;1036137;-56
2023/06/07 16:07:59;;;;;;;10.60;5.00;;;;;;;21.30;100.00;100239.19;89744;1263;1036526;-56
2023/06/07 16:12:12;;;;;;;6.10;4.30;;;;;;;21.31;100.00;100238.80;89783;1264;1037078;-56
2023/06/07 16:16:24;;;;;;;7.10;3.80;;;;;;;21.41;99.62;100243.17;89906;1263;1036666;-56
2023/06/07 16:20:27;;;;;;;6.40;5.10;;;;;;;21.37;97.93;100245.67;89800;1266;1035851;-56
2023/06/07 16:24:31;;;;;;;6.80;4.90;;;;;;;21.26;98.77;100238.88;89728;1263;1036508;-56
2023/06/07 16:28:35;;;;;;;5.20;4.40;;;;;;;21.09;99.72;100232.02;89751;1264;1035327;-56
2023/06/07 16:32:44;;;;;;;4.40;3.90;;;;;;;21.09;100.00;100228.32;89768;1264;1036377;-56
2023/06/07 16:41:40;;;;;;;5.80;4.40;;;;;;;21.09;100.00;100216.91;77593;1264;1034966;-61
2023/06/07 16:45:49;;;;;;;3.70;3.30;;;;;;;21.03;100.00;100219.53;89726;1264;1036713;-60
2023/06/07 16:49:52;;;;;;;5.40;4.00;;;;;;;21.00;100.00;100221.09;89746;1265;1035921;-60
2023/06/07 16:53:55;;;;;;;6.70;5.00;;;;;;;21.04;99.75;100218.58;89597;1264;1037187;-60
2023/06/07 16:58:05;;;;;;;8.60;4.90;;;;;;;21.11;99.06;100212.10;89734;1264;1036757;-60
2023/06/07 17:02:09;;;;;;;8.80;4.20;;;;;;;21.17;98.48;100210.47;89722;1264;1036354;-60
2023/06/07 17:06:12;;;;;;;6.40;5.00;;;;;;;21.19;98.80;100205.25;89676;1269;1036838;-60
2023/06/07 17:10:18;;;;;;;7.80;4.40;;;;;;;21.29;98.65;100209.31;89673;1264;1036039;-60
2023/06/07 17:14:22;;;;;;;7.10;4.90;;;;;;;21.40;99.62;100208.59;89664;1263;1036463;-56
2023/06/07 17:18:37;;;;;;;8.10;5.40;;;;;;;21.41;99.95;100211.80;89752;1266;1036209;-56
2023/06/07 17:22:45;;;;;;;7.60;5.20;;;;;;;21.45;100.00;100205.70;89749;1266;1036621;-57
2023/06/07 17:26:48;;;;;;;9.10;6.40;;;;;;;21.43;100.00;100204.44;89596;1264;1035823;-56
2023/06/07 17:30:56;;;;;;;6.60;5.50;;;;;;;21.55;100.00;100202.95;89522;1264;1036866;-57
2023/06/07 17:34:59;;;;;;;9.00;6.30;;;;;;;21.61;100.00;100202.17;89577;1263;1036177;-56
2023/06/07 17:39:03;;;;;;;6.20;5.30;;;;;;;21.65;99.78;100201.15;89722;1264;1035446;-57
2023/06/07 17:43:06;;;;;;;14.20;6.00;;;;;;;21.50;100.00;100201.17;89735;1264;1035967;-56
2023/06/07 17:47:52;;;;;;;9.70;5.70;;;;;;;21.34;100.00;100196.86;89700;1264;1035631;-57
2023/06/07 17:51:57;;;;;;;12.40;6.30;;;;;;;21.14;100.00;100196.59;89629;1264;1037017;-56
2023/06/07 17:56:16;;;;;;;9.70;5.70;;;;;;;21.10;100.00;100192.75;89789;1263;1036082;-57
2023/06/07 18:00:23;;;;;;;7.00;6.20;;;;;;;21.09;100.00;100201.73;89766;1264;1035753;-57
2023/06/07 18:04:37;;;;;;;8.10;7.10;;;;;;;21.14;100.00;100204.21;90014;1264;1036625;-56
2023/06/07 18:08:41;;;;;;;7.20;6.40;;;;;;;21.06;100.00;100209.23;89707;1264;1036262;-57
2023/06/07 18:12:51;;;;;;;10.10;6.70;;;;;;;20.90;100.00;100210.63;89734;1265;1037251;-59
2023/06/07 18:16:54;;;;;;;10.40;6.20;;;;;;;20.78;100.00;100209.66;89730;1264;1036581;-57
2023/06/07 18:21:24;;;;;;;10.80;7.40;;;;;;;20.73;100.00;100210.65;89670;1265;1036526;-57
2023/06/07 18:25:27;;;;;;;10.40;7.90;;;;;;;20.61;100.00;100210.60;89729;1266;1036596;-57
2023/06/07 18:29:32;;;;;;;13.40;6.40;;;;;;;20.48;100.00;100210.80;89722;1267;1036268;-58
2023/06/07 18:33:36;;;;;;;7.40;6.50;;;;;;;20.32;100.00;100208.73;89745;1265;1035864;-57
2023/06/07 18:37:39;;;;;;;7.60;6.60;;;;;;;20.18;100.00;100207.27;89703;1264;1036219;-58
2023/06/07 18:41:44;;;;;;;7.70;6.30;;;;;;;20.10;100.00;100211.06;89708;1265;1035905;-57
2023/06/07 18:45:49;;;;;;;8.20;7.30;;;;;;;20.05;100.00;100209.98;89622;1266;1036364;-57
2023/06/07 18:49:52;;;;;;;7.00;6.30;;;;;;;19.95;100.00;100208.16;89918;1265;1036527;-58
2023/06/07 18:53:56;;;;;;;8.60;6.00;;;;;;;19.91;100.00;100207.80;89930;1265;1034900;-61
2023/06/07 18:58:00;;;;;;;12.80;7.70;;;;;;;19.81;100.00;100209.79;89776;1264;1036968;-56
2023/06/07 19:02:03;;;;;;;9.50;7.10;;;;;;;19.80;100.00;100211.53;89678;1265;1036601;-57
2023/06/07 19:06:09;;;;;;;11.60;7.60;;;;;;;19.75;100.00;100213.98;89602;1264;1036473;-57
2023/06/07 19:10:15;;;;;;;8.80;7.20;;;;;;;19.80;100.00;100217.83;89710;1265;1040986;-56
2023/06/07 19:14:20;;;;;;;16.50;7.40;;;;;;;19.78;100.00;100222.23;89729;1264;1041468;-57
2023/06/07 19:18:25;;;;;;;9.20;8.00;;;;;;;19.77;100.00;100227.40;89689;1270;1042598;-58
2023/06/07 19:22:29;;;;;;;11.30;7.30;;;;;;;19.84;100.00;100231.51;89725;1266;1041119;-57
2023/06/07 19:26:35;;;;;;;12.40;8.20;;;;;;;19.89;100.00;100234.06;89774;1265;1041396;-56
2023/06/07 19:30:38;;;;;;;11.40;8.00;;;;;;;19.92;100.00;100243.63;89710;1265;1040667;-57
2023/06/07 19:34:43;;;;;;;11.30;10.00;;;;;;;20.02;100.00;100264.55;89706;1269;1043930;-56
2023/06/07 19:38:47;;;;;;;10.50;7.80;;;;;;;19.94;100.00;100282.31;89671;1265;1040708;-57
2023/06/07 19:42:50;;;;;;;13.90;8.30;;;;;;;19.83;100.00;100299.05;89739;1264;1041156;-56
2023/06/07 19:46:56;;;;;;;12.50;8.90;;;;;;;19.69;100.00;100301.27;89723;1264;1040591;-56
2023/06/07 19:51:00;;;;;;;12.70;9.10;;;;;;;19.63;100.00;100296.19;89692;1264;1041536;-57
2023/06/07 19:55:04;;;;;;;10.80;7.20;;;;;;;19.64;100.00;100291.61;89719;1265;1041036;-55
2023/06/07 19:59:41;;;;;;;10.80;8.00;;;;;;;19.72;100.00;100281.98;89775;1265;1041575;-57
2023/06/07 20:03:44;;;;;;;11.70;9.20;;;;;;;19.88;100.00;100300.23;89620;1264;1041262;-56
2023/06/07 20:08:40;;;;;;;9.30;7.70;;;;;;;19.90;100.00;100293.55;89607;1265;1040689;-57
2023/06/07 20:12:44;;;;;;;11.80;6.80;;;;;;;19.93;100.00;100278.04;89480;1264;1040876;-58
2023/06/07 20:16:47;;;;;;;9.00;7.00;;;;;;;20.00;100.00;100278.62;89620;1264;1041187;-56
2023/06/07 20:20:51;;;;;;;9.10;8.00;;;;;;;20.10;100.00;100284.27;89563;1265;1040459;-58
2023/06/07 20:25:15;;;;;;;15.60;7.20;;;;;;;20.03;100.00;100286.51;89672;1265;1041364;-56
2023/06/07 20:29:20;;;;;;;10.70;6.40;;;;;;;20.07;100.00;100272.20;89695;1265;1041001;-57
2023/06/07 20:33:24;;;;;;;9.10;7.80;;;;;;;20.15;100.00;100274.89;89657;1265;1041240;-57
2023/06/07 20:37:27;;;;;;;6.80;5.90;;;;;;;20.20;100.00;100278.95;89713;1265;1041730;-57
2023/06/07 20:41:31;;;;;;;10.70;7.10;;;;;;;20.23;99.62;100266.84;89689;1270;1043303;-57
2023/06/07 20:45:36;;;;;;;9.70;5.90;;;;;;;20.21;98.18;100264.42;89868;1264;1042983;-57
2023/06/07 20:49:50;;;;;;;17.90;7.20;;;;;;;20.20;98.34;100267.93;89919;1267;1041485;-57
2023/06/07 20:53:55;;;;;;;10.60;6.40;;;;;;;20.20;97.43;100272.83;89906;1265;1041544;-58
2023/06/07 20:58:14;;;;;;;13.50;6.90;;;;;;;20.14;96.37;100269.23;89741;1268;1041376;-56